Time;durP1;ratioP1;P1;durP2;ratioP2;P2;SDS_P1;SDS_P2;PMS_P1;PMS_P2;Temp;Humidity;BMP_temperature;BMP_pressure;BME280_temperature;BME280_humidity;BME280_pressure;Samples;Min_cycle;Max_cycle;Signal;HPM_P1;HPM_P2
2022/05/07 00:02:20;;;;;;;23.70;16.27;;;;;;;12.25;100.00;96699.97;4998241;28;20203;-82
2022/05/07 00:04:48;;;;;;;23.67;16.67;;;;;;;12.28;100.00;96704.91;4994014;28;20207;-82
2022/05/07 00:07:15;;;;;;;22.57;15.87;;;;;;;12.21;100.00;96694.19;5006132;28;20279;-81
2022/05/07 00:09:42;;;;;;;21.53;16.10;;;;;;;12.20;100.00;96694.41;4995573;28;20203;-81
2022/05/07 00:12:10;;;;;;;23.27;15.90;;;;;;;12.20;100.00;96691.72;5006065;28;20209;-81
2022/05/07 00:14:38;;;;;;;21.43;16.50;;;;;;;12.13;100.00;96684.53;5015042;28;20286;-83
2022/05/07 00:19:51;;;;;;;24.10;17.17;;;;;;;12.21;100.00;96693.38;5005902;28;20222;-82
2022/05/07 00:22:18;;;;;;;22.97;16.30;;;;;;;12.18;100.00;96685.69;5019875;28;20219;-82
2022/05/07 00:24:45;;;;;;;21.17;15.67;;;;;;;12.20;100.00;96687.13;5016410;28;20203;-83
2022/05/07 00:27:13;;;;;;;22.43;16.53;;;;;;;12.21;100.00;96690.66;5021436;28;20298;-84
2022/05/07 00:29:41;;;;;;;22.90;16.97;;;;;;;12.20;100.00;96683.59;5003709;28;20206;-82
2022/05/07 00:32:10;;;;;;;23.27;16.40;;;;;;;12.17;100.00;96671.34;5004638;28;20203;-83
2022/05/07 00:34:37;;;;;;;26.33;18.13;;;;;;;12.18;100.00;96672.16;5014509;28;20246;-82
2022/05/07 00:37:06;;;;;;;25.53;17.47;;;;;;;12.22;100.00;96678.78;4998484;28;20198;-82
2022/05/07 00:39:33;;;;;;;22.13;16.47;;;;;;;12.21;100.00;96682.53;4998130;28;20246;-83
2022/05/07 00:42:04;;;;;;;25.93;18.53;;;;;;;12.19;100.00;96673.81;4996036;28;20277;-81
2022/05/07 00:44:32;;;;;;;26.93;18.07;;;;;;;12.18;100.00;96678.41;5008065;28;20218;-82
2022/05/07 00:47:21;;;;;;;24.60;17.33;;;;;;;12.19;100.00;96681.94;4998629;28;20311;-84
2022/05/07 00:49:50;;;;;;;23.33;17.20;;;;;;;12.22;100.00;96674.19;5006764;28;20202;-82
2022/05/07 00:52:18;;;;;;;22.03;16.33;;;;;;;12.24;100.00;96676.66;5006255;28;20235;-82
2022/05/07 00:54:46;;;;;;;22.57;16.97;;;;;;;12.28;100.00;96677.84;5003194;28;20211;-81
2022/05/07 00:57:13;;;;;;;22.03;16.70;;;;;;;12.28;100.00;96672.41;5007681;28;20198;-82
2022/05/07 00:59:41;;;;;;;21.47;15.60;;;;;;;12.30;100.00;96679.25;5003634;28;20258;-82
2022/05/07 01:02:09;;;;;;;19.70;14.87;;;;;;;12.29;100.00;96668.66;5010440;28;20206;-82
2022/05/07 01:04:37;;;;;;;23.03;15.37;;;;;;;12.30;100.00;96665.72;4999397;28;20211;-82
2022/05/07 01:07:04;;;;;;;17.83;13.83;;;;;;;12.34;100.00;96668.78;5004276;28;20247;-82
2022/05/07 01:09:33;;;;;;;20.50;15.60;;;;;;;12.33;100.00;96665.25;5018019;28;20230;-82
2022/05/07 01:12:01;;;;;;;25.13;15.27;;;;;;;12.29;100.00;96666.78;4998943;28;20234;-82
2022/05/07 01:14:28;;;;;;;20.80;14.80;;;;;;;12.25;100.00;96665.56;5010404;28;20211;-82
2022/05/07 01:16:55;;;;;;;19.47;14.87;;;;;;;12.26;100.00;96658.28;4994538;28;20215;-81
2022/05/07 01:19:22;;;;;;;20.47;15.83;;;;;;;12.22;100.00;96655.22;4998389;28;20211;-82
2022/05/07 01:21:51;;;;;;;19.07;15.07;;;;;;;12.20;100.00;96657.34;5000046;28;20242;-82
2022/05/07 01:24:18;;;;;;;22.87;17.23;;;;;;;12.21;100.00;96660.88;4992227;28;20199;-82
2022/05/07 01:26:45;;;;;;;21.90;15.13;;;;;;;12.20;100.00;96659.22;5020947;28;20198;-82
2022/05/07 01:29:12;;;;;;;22.80;16.03;;;;;;;12.18;100.00;96650.50;5001877;28;20272;-82
2022/05/07 01:31:43;;;;;;;23.60;17.17;;;;;;;12.21;100.00;96659.00;5007871;28;20203;-82
2022/05/07 01:34:10;;;;;;;23.83;16.77;;;;;;;12.18;100.00;96647.78;4994975;28;20203;-81
2022/05/07 01:36:40;;;;;;;23.10;16.80;;;;;;;12.20;100.00;96654.63;4991963;28;20227;-82
2022/05/07 01:39:14;;;;;;;26.23;16.70;;;;;;;12.17;100.00;96655.09;5001621;28;20249;-81
2022/05/07 01:41:41;;;;;;;24.60;16.60;;;;;;;12.18;100.00;96659.44;5001436;28;20214;-81
2022/05/07 01:44:09;;;;;;;24.00;16.73;;;;;;;12.22;100.00;96659.81;4996836;28;20215;-81
2022/05/07 01:49:30;;;;;;;18.17;14.00;;;;;;;12.30;100.00;96664.91;4952116;28;20197;-82
2022/05/07 01:51:59;;;;;;;19.60;12.60;;;;;;;12.30;100.00;96664.91;5007065;28;20298;-81
2022/05/07 01:54:27;;;;;;;13.70;9.70;;;;;;;12.31;100.00;96663.84;5016091;28;20218;-82
2022/05/07 01:56:55;;;;;;;14.00;10.00;;;;;;;12.23;100.00;96661.47;4996976;28;20212;-81
2022/05/07 01:59:23;;;;;;;14.67;11.47;;;;;;;12.20;100.00;96659.22;4995525;28;20207;-81
2022/05/07 02:01:53;;;;;;;18.97;13.70;;;;;;;12.15;100.00;96657.22;5008336;28;20255;-82
2022/05/07 02:04:21;;;;;;;19.77;15.37;;;;;;;12.11;100.00;96654.16;5007896;28;20214;-83
2022/05/07 02:06:48;;;;;;;21.50;15.33;;;;;;;12.13;100.00;96665.56;5003372;28;20495;-82
2022/05/07 02:09:16;;;;;;;21.37;15.23;;;;;;;12.13;100.00;96653.91;5002038;28;20214;-81
2022/05/07 02:11:45;;;;;;;20.50;15.70;;;;;;;12.15;100.00;96656.41;5005793;28;20199;-83
2022/05/07 02:14:12;;;;;;;19.53;15.97;;;;;;;12.15;100.00;96648.28;5003466;28;20211;-82
2022/05/07 02:16:40;;;;;;;20.37;15.27;;;;;;;12.15;100.00;96659.94;5005987;28;20211;-82
2022/05/07 02:19:07;;;;;;;24.50;15.97;;;;;;;12.11;100.00;96646.03;4998330;28;20289;-83
2022/05/07 02:21:35;;;;;;;24.33;16.80;;;;;;;12.10;100.00;96660.63;5002304;28;20230;-81
2022/05/07 02:24:03;;;;;;;22.63;16.07;;;;;;;12.10;100.00;96648.97;4998950;28;20208;-82
2022/05/07 02:26:30;;;;;;;20.30;15.77;;;;;;;12.07;100.00;96658.38;5015925;28;20207;-82
2022/05/07 02:29:01;;;;;;;23.83;15.60;;;;;;;12.07;100.00;96652.97;5004611;28;20260;-82
2022/05/07 02:31:29;;;;;;;21.90;15.20;;;;;;;12.06;100.00;96647.78;5004195;28;20210;-82
2022/05/07 02:33:56;;;;;;;20.27;16.07;;;;;;;12.09;100.00;96656.25;5007386;28;20211;-81
2022/05/07 02:36:24;;;;;;;22.47;15.67;;;;;;;12.07;100.00;96663.81;5005616;28;20210;-82
2022/05/07 02:38:52;;;;;;;21.47;16.40;;;;;;;12.06;100.00;96651.31;5015026;28;20199;-81
2022/05/07 02:44:06;;;;;;;24.70;16.37;;;;;;;12.06;100.00;96656.75;5006201;28;20213;-82
2022/05/07 02:46:34;;;;;;;23.83;16.13;;;;;;;12.00;100.00;96654.94;5024950;28;20226;-82
2022/05/07 02:49:05;;;;;;;24.60;16.43;;;;;;;12.02;100.00;96658.25;5006669;28;20238;-83
2022/05/07 02:51:32;;;;;;;22.80;16.50;;;;;;;12.07;100.00;96652.16;5018111;28;20211;-82
2022/05/07 02:53:59;;;;;;;23.50;16.67;;;;;;;12.00;100.00;96648.69;4994339;28;20207;-81
2022/05/07 02:56:26;;;;;;;22.03;15.77;;;;;;;11.99;100.00;96642.47;5007229;28;20203;-82
2022/05/07 02:58:53;;;;;;;22.07;15.20;;;;;;;12.03;100.00;96646.38;5016148;28;20211;-83
2022/05/07 03:01:22;;;;;;;21.23;15.47;;;;;;;12.04;100.00;96639.91;4996999;28;20203;-81
2022/05/07 03:03:50;;;;;;;20.47;15.17;;;;;;;12.02;100.00;96647.41;5005706;28;20219;-81
2022/05/07 03:06:17;;;;;;;21.13;14.77;;;;;;;12.02;100.00;96636.59;5004870;28;20254;-81
2022/05/07 03:08:44;;;;;;;21.90;16.00;;;;;;;12.01;100.00;96640.34;5003538;28;20219;-82
2022/05/07 03:11:11;;;;;;;23.13;16.03;;;;;;;12.03;100.00;96640.13;5016576;28;20301;-82
2022/05/07 03:13:38;;;;;;;23.70;15.57;;;;;;;12.04;100.00;96637.19;5005423;28;20212;-81
2022/05/07 03:16:08;;;;;;;22.07;16.00;;;;;;;12.06;100.00;96642.38;5019950;28;20208;-83
2022/05/07 03:18:37;;;;;;;23.10;17.17;;;;;;;11.95;100.00;96635.88;5010111;28;20207;-82
2022/05/07 03:21:04;;;;;;;20.00;14.70;;;;;;;12.00;100.00;96643.28;5005095;28;20244;-83
2022/05/07 03:23:31;;;;;;;23.10;16.50;;;;;;;12.01;100.00;96629.53;4998268;28;20254;-82
2022/05/07 03:26:08;;;;;;;23.97;15.40;;;;;;;12.05;100.00;96640.72;5005705;28;20220;-81
2022/05/07 03:28:35;;;;;;;26.63;16.20;;;;;;;12.02;100.00;96624.94;5010879;28;20512;-82
2022/05/07 03:31:02;;;;;;;20.90;15.83;;;;;;;12.05;100.00;96632.59;5024117;28;20348;-81
2022/05/07 03:33:30;;;;;;;21.03;15.57;;;;;;;12.05;100.00;96636.13;5016351;28;20239;-82
2022/05/07 03:35:58;;;;;;;24.97;16.97;;;;;;;12.01;100.00;96626.81;5018142;28;20215;-81
2022/05/07 03:38:26;;;;;;;22.47;15.73;;;;;;;12.05;100.00;96635.31;5012078;28;20207;-84
2022/05/07 03:41:01;;;;;;;21.07;15.33;;;;;;;11.99;100.00;96626.22;5016030;28;20214;-81
2022/05/07 03:43:33;;;;;;;22.47;15.83;;;;;;;12.02;100.00;96633.06;5002027;28;20218;-81
2022/05/07 03:46:00;;;;;;;22.33;16.20;;;;;;;11.99;100.00;96626.22;5002126;28;20215;-82
2022/05/07 03:48:29;;;;;;;22.17;15.83;;;;;;;11.96;100.00;96623.16;5004959;28;20219;-82
2022/05/07 03:50:58;;;;;;;25.67;16.60;;;;;;;11.96;100.00;96626.69;5022339;28;20225;-82
2022/05/07 03:53:31;;;;;;;22.83;15.80;;;;;;;11.97;100.00;96620.25;4997361;28;20257;-83
2022/05/07 03:56:07;;;;;;;22.37;16.23;;;;;;;11.98;100.00;96630.00;4995241;28;20212;-82
2022/05/07 03:58:37;;;;;;;24.17;16.93;;;;;;;11.99;100.00;96631.63;4993105;28;20214;-83
2022/05/07 04:01:05;;;;;;;28.33;17.33;;;;;;;12.00;100.00;96627.03;5002984;28;20215;-83
2022/05/07 04:03:32;;;;;;;22.33;16.00;;;;;;;11.96;100.00;96613.19;5000795;28;20208;-81
2022/05/07 04:06:02;;;;;;;21.80;15.87;;;;;;;12.05;100.00;96619.91;5011201;28;20209;-82
2022/05/07 04:08:29;;;;;;;25.97;16.93;;;;;;;12.02;100.00;96627.66;5001209;28;20226;-83
2022/05/07 04:10:58;;;;;;;21.53;15.97;;;;;;;12.00;100.00;96633.28;4998047;28;20203;-82
2022/05/07 04:13:28;;;;;;;22.77;16.23;;;;;;;11.97;100.00;96622.94;5003856;28;20207;-82
2022/05/07 04:15:58;;;;;;;22.70;17.07;;;;;;;11.98;100.00;96621.88;5004147;28;20211;-83
2022/05/07 04:18:31;;;;;;;23.33;15.90;;;;;;;11.97;100.00;96622.94;5000736;28;20215;-83
2022/05/07 04:21:00;;;;;;;20.70;15.57;;;;;;;12.02;100.00;96625.75;5012290;28;20231;-81
2022/05/07 04:23:28;;;;;;;23.30;16.47;;;;;;;12.04;100.00;96634.47;4998895;28;20235;-82
2022/05/07 04:25:57;;;;;;;24.63;16.40;;;;;;;12.02;100.00;96623.06;5001477;28;20242;-82
2022/05/07 04:28:26;;;;;;;20.70;16.37;;;;;;;12.00;100.00;96627.03;5013736;28;20285;-81
2022/05/07 04:30:54;;;;;;;22.50;16.80;;;;;;;11.99;100.00;96628.13;4999834;28;20202;-81
2022/05/07 04:33:27;;;;;;;24.17;18.20;;;;;;;11.97;100.00;96630.22;5011560;28;20208;-82
2022/05/07 04:36:00;;;;;;;23.03;18.37;;;;;;;11.93;100.00;96627.16;5012279;28;20211;-81
2022/05/07 04:38:28;;;;;;;29.10;18.23;;;;;;;11.93;100.00;96631.75;5001222;28;20212;-81
2022/05/07 04:40:55;;;;;;;23.73;16.93;;;;;;;11.94;100.00;96633.41;4996816;28;20210;-82
2022/05/07 04:43:27;;;;;;;25.60;16.70;;;;;;;11.91;100.00;96637.38;5017904;28;20211;-82
2022/05/07 04:45:55;;;;;;;25.23;16.93;;;;;;;11.89;100.00;96631.41;5001722;28;20216;-82
2022/05/07 04:48:22;;;;;;;25.03;18.23;;;;;;;11.92;100.00;96633.63;5009933;28;20299;-81
2022/05/07 04:50:49;;;;;;;25.27;18.27;;;;;;;11.90;100.00;96632.22;4999113;28;20220;-82
2022/05/07 04:53:38;;;;;;;25.30;18.20;;;;;;;11.95;100.00;96635.06;4991154;28;20262;-82
2022/05/07 04:56:13;;;;;;;27.07;18.30;;;;;;;11.99;100.00;96634.34;4995806;28;20240;-83
2022/05/07 04:58:50;;;;;;;23.43;17.23;;;;;;;12.02;100.00;96636.59;4989307;28;20296;-81
2022/05/07 05:01:17;;;;;;;23.63;17.57;;;;;;;12.06;100.00;96645.91;4996751;28;20294;-81
2022/05/07 05:03:51;;;;;;;24.13;16.57;;;;;;;12.08;100.00;96641.06;4994288;28;20208;-82
2022/05/07 05:06:25;;;;;;;25.97;18.10;;;;;;;12.19;100.00;96636.75;4992798;28;20292;-81
2022/05/07 05:09:15;;;;;;;22.43;16.60;;;;;;;12.22;100.00;96640.88;5011940;28;20316;-82
2022/05/07 05:11:53;;;;;;;26.77;17.17;;;;;;;12.26;100.00;96650.16;5017816;28;20214;-82
2022/05/07 05:17:07;;;;;;;24.57;16.37;;;;;;;12.32;100.00;96654.66;4997267;28;20230;-82
2022/05/07 05:19:37;;;;;;;21.63;15.77;;;;;;;12.38;100.00;96651.84;4990422;28;20199;-81
2022/05/07 05:22:07;;;;;;;23.23;17.13;;;;;;;12.40;100.00;96651.59;4996966;28;20232;-81
2022/05/07 05:24:38;;;;;;;20.70;16.37;;;;;;;12.39;100.00;96658.91;4993703;28;20294;-82
2022/05/07 05:27:06;;;;;;;22.17;15.37;;;;;;;12.43;100.00;96665.50;5001976;28;20204;-83
2022/05/07 05:29:39;;;;;;;20.43;15.07;;;;;;;12.40;100.00;96665.16;5000391;28;20245;-82
2022/05/07 05:32:09;;;;;;;20.47;15.37;;;;;;;12.40;100.00;96657.84;4993239;28;20215;-82
2022/05/07 05:34:39;;;;;;;21.30;15.43;;;;;;;12.44;100.00;96660.91;5015664;28;20196;-81
2022/05/07 05:37:07;;;;;;;23.17;15.77;;;;;;;12.49;100.00;96663.75;5005102;28;20208;-81
2022/05/07 05:39:43;;;;;;;18.43;14.80;;;;;;;12.51;100.00;96669.72;5002080;28;20227;-85
2022/05/07 05:42:11;;;;;;;21.47;15.60;;;;;;;12.50;100.00;96665.41;5000935;28;20214;-83
2022/05/07 05:44:43;;;;;;;22.77;16.93;;;;;;;12.50;100.00;96671.63;5017160;28;20207;-84
2022/05/07 05:47:15;;;;;;;19.83;15.23;;;;;;;12.53;100.00;96664.91;4999773;28;20211;-82
2022/05/07 05:49:42;;;;;;;22.30;15.80;;;;;;;12.53;100.00;96670.31;5015257;28;20227;-81
2022/05/07 05:52:09;;;;;;;20.23;15.47;;;;;;;12.60;100.00;96668.31;4992981;28;20200;-83
2022/05/07 05:54:38;;;;;;;21.03;16.23;;;;;;;12.58;100.00;96662.34;5003943;28;20258;-82
2022/05/07 05:57:08;;;;;;;21.93;15.73;;;;;;;12.58;100.00;96665.06;5020776;28;20231;-84
2022/05/07 05:59:37;;;;;;;22.30;16.73;;;;;;;12.54;100.00;96663.84;5015656;28;20199;-83
2022/05/07 06:02:05;;;;;;;19.33;15.37;;;;;;;12.63;100.00;96672.47;5000901;28;20201;-83
2022/05/07 06:04:41;;;;;;;22.43;16.27;;;;;;;12.65;100.00;96663.03;5002643;28;20214;-81
2022/05/07 06:07:15;;;;;;;19.70;15.10;;;;;;;12.68;100.00;96662.56;4991515;28;20223;-81
2022/05/07 06:09:43;;;;;;;20.83;15.67;;;;;;;12.77;100.00;96663.03;5021425;28;20270;-82
2022/05/07 06:12:18;;;;;;;23.77;17.17;;;;;;;12.76;100.00;96664.91;5004762;28;20258;-82
2022/05/07 06:14:46;;;;;;;22.70;16.10;;;;;;;12.78;100.00;96673.63;4999001;28;20287;-81
2022/05/07 06:17:14;;;;;;;21.40;15.70;;;;;;;12.79;100.00;96672.56;5016026;28;20227;-81
2022/05/07 06:19:45;;;;;;;23.00;17.17;;;;;;;12.79;100.00;96672.56;5013304;28;20295;-82
2022/05/07 06:22:13;;;;;;;22.30;16.57;;;;;;;12.89;100.00;96677.41;5014062;28;20239;-81
2022/05/07 06:27:35;;;;;;;21.30;15.83;;;;;;;12.89;100.00;96685.53;4992586;28;20227;-82
2022/05/07 06:30:19;;;;;;;22.83;16.47;;;;;;;12.91;100.00;96678.00;5004510;28;20230;-81
2022/05/07 06:32:52;;;;;;;23.23;16.10;;;;;;;12.96;100.00;96683.53;4992518;28;20200;-81
2022/05/07 06:35:21;;;;;;;19.73;15.63;;;;;;;13.00;100.00;96683.88;4995153;28;20212;-81
2022/05/07 06:38:11;;;;;;;19.90;15.43;;;;;;;13.00;100.00;96695.56;4997331;28;20204;-82
2022/05/07 06:40:40;;;;;;;22.77;16.23;;;;;;;13.00;100.00;96667.63;5000623;28;20291;-82
2022/05/07 06:43:10;;;;;;;20.53;16.13;;;;;;;13.01;100.00;96682.81;4999835;28;20204;-82
2022/05/07 06:45:55;;;;;;;21.00;15.80;;;;;;;13.02;100.00;96679.03;4999934;28;20212;-83
2022/05/07 06:48:23;;;;;;;20.90;16.10;;;;;;;12.96;100.00;96677.28;4995468;28;20207;-82
2022/05/07 06:50:55;;;;;;;20.77;16.13;;;;;;;12.99;100.00;96677.63;4997740;28;20200;-83
2022/05/07 06:53:26;;;;;;;20.43;16.30;;;;;;;13.04;100.00;96679.63;5009700;28;20203;-83
2022/05/07 06:55:56;;;;;;;20.87;16.17;;;;;;;13.07;100.00;96681.88;4998917;28;20290;-83
2022/05/07 06:58:26;;;;;;;22.33;16.73;;;;;;;13.12;100.00;96671.13;4996499;28;20246;-81
2022/05/07 07:00:53;;;;;;;23.60;16.07;;;;;;;13.10;100.00;96665.94;5008227;28;20258;-83
2022/05/07 07:03:20;;;;;;;20.97;15.67;;;;;;;13.17;100.00;96674.81;4998803;28;20250;-82
2022/05/07 07:05:48;;;;;;;19.67;15.00;;;;;;;13.18;100.00;96672.94;4997753;28;20218;-83
2022/05/07 07:08:15;;;;;;;29.27;15.60;;;;;;;13.10;100.00;96670.56;4990054;28;20219;-84
2022/05/07 07:10:43;;;;;;;20.57;15.53;;;;;;;13.04;100.00;96671.50;5011142;28;20314;-83
2022/05/07 07:13:11;;;;;;;22.70;15.30;;;;;;;13.04;100.00;96672.31;4992207;28;20207;-84
2022/05/07 07:15:40;;;;;;;21.17;15.07;;;;;;;13.04;100.00;96672.31;4993605;28;20206;-85
2022/05/07 07:18:10;;;;;;;18.10;15.33;;;;;;;13.02;100.00;96676.31;4996948;28;20226;-82
2022/05/07 07:20:42;;;;;;;17.80;14.57;;;;;;;13.01;100.00;96664.69;5019184;28;20220;-84
2022/05/07 07:23:11;;;;;;;23.67;15.90;;;;;;;13.11;100.00;96666.75;4997919;28;20242;-85
2022/05/07 07:25:39;;;;;;;21.77;15.57;;;;;;;13.16;100.00;96659.59;4997827;28;20206;-84
2022/05/07 07:28:06;;;;;;;18.03;14.43;;;;;;;13.16;100.00;96658.78;4990525;28;20524;-83
2022/05/07 07:30:33;;;;;;;19.00;15.23;;;;;;;13.20;100.00;96670.78;5002636;28;20220;-82
2022/05/07 07:33:03;;;;;;;21.53;14.80;;;;;;;13.15;100.00;96670.69;4999540;28;20215;-83
2022/05/07 07:35:30;;;;;;;20.83;15.13;;;;;;;13.20;100.00;96676.22;4999129;28;20202;-83
2022/05/07 07:37:57;;;;;;;22.77;15.37;;;;;;;13.13;100.00;96664.63;5001119;28;20219;-84
2022/05/07 07:40:25;;;;;;;20.80;15.13;;;;;;;13.13;100.00;96670.06;4993546;28;20204;-84
2022/05/07 07:42:53;;;;;;;20.00;14.77;;;;;;;13.18;100.00;96668.31;4992694;28;20216;-84
2022/05/07 07:48:08;;;;;;;22.23;16.60;;;;;;;13.30;100.00;96673.72;5003007;28;20205;-83
2022/05/07 07:50:38;;;;;;;20.40;15.73;;;;;;;13.25;100.00;96676.34;4999625;28;20277;-82
2022/05/07 07:53:07;;;;;;;21.47;16.27;;;;;;;13.25;100.00;96669.03;5004909;28;20207;-83
2022/05/07 07:55:36;;;;;;;22.70;16.27;;;;;;;13.29;100.00;96668.53;5002441;28;20208;-82
2022/05/07 07:58:05;;;;;;;21.37;15.57;;;;;;;13.37;100.00;96676.28;4989551;28;20237;-84
2022/05/07 08:00:35;;;;;;;19.17;15.90;;;;;;;13.46;100.00;96674.84;4998710;28;20227;-84
2022/05/07 08:03:12;;;;;;;22.83;15.40;;;;;;;13.50;100.00;96679.56;4989718;28;20211;-84
2022/05/07 08:05:42;;;;;;;20.27;14.87;;;;;;;13.62;100.00;96674.91;5013459;28;20207;-82
2022/05/07 08:13:43;;;;;;;23.23;15.40;;;;;;;13.93;100.00;96680.94;5015791;28;20212;-83
2022/05/07 08:16:11;;;;;;;22.27;15.53;;;;;;;13.98;100.00;96679.13;5013729;28;20211;-83
2022/05/07 08:18:41;;;;;;;19.43;15.23;;;;;;;14.02;100.00;96679.47;4996905;28;20218;-83
2022/05/07 08:21:09;;;;;;;25.47;15.00;;;;;;;14.07;100.00;96685.00;4999010;28;20310;-82
2022/05/07 08:23:37;;;;;;;22.13;14.77;;;;;;;14.07;100.00;96687.72;4999852;28;20202;-83
2022/05/07 08:26:04;;;;;;;18.80;14.80;;;;;;;14.05;100.00;96684.41;4992544;28;20214;-84
2022/05/07 08:28:31;;;;;;;21.93;15.47;;;;;;;14.01;100.00;96688.69;4991632;28;20196;-84
2022/05/07 08:30:58;;;;;;;18.53;15.37;;;;;;;14.04;100.00;96693.63;4996403;28;20230;-84
2022/05/07 08:33:26;;;;;;;18.47;15.13;;;;;;;14.02;100.00;96684.91;5002955;28;20303;-82
2022/05/07 08:35:55;;;;;;;18.27;14.63;;;;;;;14.07;100.00;96682.28;5016225;28;20207;-84
2022/05/07 08:38:23;;;;;;;20.27;14.57;;;;;;;14.02;100.00;96690.34;5016741;28;20219;-83
2022/05/07 08:40:50;;;;;;;19.23;14.70;;;;;;;14.05;100.00;96678.97;4998060;28;20225;-84
2022/05/07 08:43:18;;;;;;;18.77;14.27;;;;;;;14.00;100.00;96696.00;4998111;28;20215;-86
2022/05/07 08:45:46;;;;;;;18.70;14.10;;;;;;;13.94;100.00;96682.59;5007916;28;20265;-82
2022/05/07 08:48:13;;;;;;;18.90;15.10;;;;;;;13.94;100.00;96693.44;5003525;28;20218;-84
2022/05/07 08:50:40;;;;;;;19.87;14.63;;;;;;;13.95;100.00;96687.75;4997108;28;20222;-83
2022/05/07 08:53:09;;;;;;;20.47;14.33;;;;;;;13.97;100.00;96692.94;5001635;28;20273;-84
2022/05/07 08:55:36;;;;;;;16.80;12.93;;;;;;;13.98;100.00;96694.59;5000645;28;20203;-82
2022/05/07 08:58:04;;;;;;;18.67;13.63;;;;;;;14.02;100.00;96691.16;5009119;28;20212;-83
2022/05/07 09:00:32;;;;;;;17.73;14.00;;;;;;;14.11;100.00;96691.59;5003739;28;20203;-83
2022/05/07 09:03:01;;;;;;;17.90;15.07;;;;;;;14.14;100.00;96682.13;4996489;28;20271;-83
2022/05/07 09:05:34;;;;;;;19.50;14.63;;;;;;;14.16;100.00;96690.84;4997271;28;20206;-82
2022/05/07 09:08:03;;;;;;;17.20;13.40;;;;;;;14.23;100.00;96686.91;5020545;28;20227;-83
2022/05/07 09:10:33;;;;;;;17.63;13.90;;;;;;;14.30;100.00;96676.72;4995274;28;20318;-84
2022/05/07 09:13:01;;;;;;;16.73;13.20;;;;;;;14.38;100.00;96686.34;5001307;28;20214;-84
2022/05/07 09:15:28;;;;;;;17.93;14.70;;;;;;;14.45;100.00;96686.25;4995016;28;20215;-82
2022/05/07 09:17:55;;;;;;;16.70;13.73;;;;;;;14.53;100.00;96686.66;5007717;28;20203;-83
2022/05/07 09:20:23;;;;;;;17.37;13.53;;;;;;;14.68;100.00;96676.03;5018393;28;20276;-84
2022/05/07 09:22:53;;;;;;;17.33;13.87;;;;;;;14.62;100.00;96668.03;5000899;28;20282;-84
2022/05/07 09:25:22;;;;;;;16.87;13.37;;;;;;;14.71;100.00;96674.72;5013140;28;20210;-83
2022/05/07 09:27:52;;;;;;;16.70;13.10;;;;;;;14.77;100.00;96681.88;4996176;28;20191;-83
2022/05/07 09:30:24;;;;;;;15.20;12.80;;;;;;;14.83;100.00;96672.69;4999368;28;20227;-83
2022/05/07 09:32:53;;;;;;;19.13;13.10;;;;;;;14.81;100.00;96669.41;5003558;28;20200;-85
2022/05/07 09:38:10;;;;;;;14.77;12.50;;;;;;;14.62;100.00;96668.03;5012087;28;20211;-82
2022/05/07 09:40:42;;;;;;;16.87;13.40;;;;;;;14.65;100.00;96660.19;4991640;28;20218;-82
2022/05/07 09:43:12;;;;;;;19.40;12.30;;;;;;;14.60;100.00;96665.56;5008316;28;20206;-85
2022/05/07 09:45:41;;;;;;;17.50;12.97;;;;;;;14.72;100.00;96662.75;5009261;28;20203;-83
2022/05/07 09:48:12;;;;;;;15.93;12.03;;;;;;;14.71;100.00;96658.41;4993370;28;20210;-83
2022/05/07 09:50:45;;;;;;;19.30;13.43;;;;;;;14.64;100.00;96658.53;5016677;28;20225;-83
2022/05/07 09:58:46;;;;;;;16.90;13.23;;;;;;;15.27;100.00;96649.13;5013133;28;20214;-84
2022/05/07 10:01:27;;;;;;;15.23;12.50;;;;;;;15.44;100.00;96659.94;4994255;28;20294;-83
2022/05/07 10:04:06;;;;;;;14.07;12.20;;;;;;;15.47;100.00;96654.00;4995870;28;20203;-82
2022/05/07 10:06:46;;;;;;;17.03;12.30;;;;;;;15.48;100.00;96650.22;5009246;28;20354;-84
2022/05/07 10:09:38;;;;;;;17.73;12.43;;;;;;;15.45;100.00;96658.88;5009115;28;20215;-82
2022/05/07 10:12:06;;;;;;;15.67;12.07;;;;;;;15.31;100.00;96650.25;4997536;28;20229;-82
2022/05/07 10:14:35;;;;;;;13.77;11.60;;;;;;;15.31;100.00;96646.72;5014753;28;20310;-81
2022/05/07 10:17:09;;;;;;;16.63;13.23;;;;;;;15.24;100.00;96651.50;5012076;28;20211;-83
2022/05/07 10:19:39;;;;;;;16.10;13.50;;;;;;;15.23;100.00;96647.97;5013136;28;20305;-83
2022/05/07 10:22:21;;;;;;;15.67;13.13;;;;;;;15.15;100.00;96649.22;5007359;28;20242;-82
2022/05/07 10:24:49;;;;;;;15.67;12.77;;;;;;;15.11;100.00;96645.38;5010540;28;20200;-82
2022/05/07 10:27:22;;;;;;;15.17;12.70;;;;;;;15.08;100.00;96650.50;4998115;28;20211;-83
2022/05/07 10:29:51;;;;;;;17.47;13.67;;;;;;;15.09;100.00;96644.81;4999121;28;20348;-84
2022/05/07 10:32:21;;;;;;;15.50;12.87;;;;;;;14.99;100.00;96644.66;5001283;28;20224;-81
2022/05/07 10:34:53;;;;;;;16.03;13.50;;;;;;;15.01;100.00;96650.69;4991785;28;20212;-83
2022/05/07 10:37:21;;;;;;;23.60;13.93;;;;;;;15.10;100.00;96643.72;4999556;28;20196;-81
2022/05/07 10:39:53;;;;;;;18.03;15.03;;;;;;;15.06;100.00;96652.63;4996167;28;20206;-83
2022/05/07 10:42:22;;;;;;;17.67;13.67;;;;;;;15.07;100.00;96649.66;5004006;28;20207;-83
2022/05/07 10:44:50;;;;;;;19.00;14.40;;;;;;;14.99;100.00;96657.44;4994305;28;20204;-83
2022/05/07 10:47:20;;;;;;;16.83;14.90;;;;;;;14.81;100.00;96647.66;5005541;28;20215;-83
2022/05/07 10:49:55;;;;;;;19.27;15.23;;;;;;;14.76;100.00;96648.41;4997621;28;20207;-83
2022/05/07 10:52:33;;;;;;;21.47;16.33;;;;;;;14.68;100.00;96642.59;4997866;28;20269;-83
2022/05/07 10:55:11;;;;;;;18.27;14.27;;;;;;;14.60;100.00;96637.56;5018740;28;20211;-84
2022/05/07 10:57:43;;;;;;;24.60;16.30;;;;;;;14.48;100.00;96639.53;4998405;28;20302;-83
2022/05/07 11:00:15;;;;;;;17.93;15.47;;;;;;;14.60;100.00;96640.28;4993269;28;20216;-84
2022/05/07 11:02:43;;;;;;;23.03;16.07;;;;;;;14.68;100.00;96637.97;5020784;28;20203;-83
2022/05/07 11:05:11;;;;;;;18.13;15.03;;;;;;;14.81;100.00;96639.50;5004255;28;20301;-83
2022/05/07 11:07:38;;;;;;;16.90;14.30;;;;;;;14.85;100.00;96639.84;5020377;28;20212;-83
2022/05/07 11:10:08;;;;;;;19.60;15.83;;;;;;;14.93;100.00;96634.78;4992783;28;20226;-82
2022/05/07 11:12:36;;;;;;;20.97;15.73;;;;;;;15.13;100.00;96637.81;4993212;28;20208;-83
2022/05/07 11:15:05;;;;;;;16.40;13.27;;;;;;;15.15;100.00;96630.19;4999623;28;20227;-82
2022/05/07 11:17:35;;;;;;;17.33;14.37;;;;;;;15.21;100.00;96631.09;4998039;28;20218;-83
2022/05/07 11:20:04;;;;;;;15.67;13.20;;;;;;;15.19;100.00;96624.25;5011162;28;20233;-83
2022/05/07 11:22:31;;;;;;;17.97;14.70;;;;;;;15.17;100.00;96627.22;5005935;28;20235;-83
2022/05/07 11:25:00;;;;;;;17.43;14.37;;;;;;;15.11;100.00;96620.91;5005356;28;20224;-84
2022/05/07 11:27:32;;;;;;;18.80;15.10;;;;;;;15.02;100.00;96625.13;4994777;28;20208;-82
2022/05/07 11:30:00;;;;;;;18.33;14.63;;;;;;;14.97;100.00;96621.53;4997263;28;20238;-83
2022/05/07 11:32:40;;;;;;;18.23;14.67;;;;;;;15.08;100.00;96623.28;5016838;28;20207;-83
2022/05/07 11:35:08;;;;;;;18.87;13.90;;;;;;;15.04;100.00;96620.28;4997538;28;20223;-81
2022/05/07 11:37:40;;;;;;;18.47;14.90;;;;;;;15.09;100.00;96614.06;4995033;28;20204;-84
2022/05/07 11:40:08;;;;;;;20.43;15.40;;;;;;;15.11;100.00;96618.19;4992049;28;20209;-83
2022/05/07 11:42:36;;;;;;;18.37;15.30;;;;;;;15.04;100.00;96612.13;4998009;28;20226;-83
2022/05/07 11:45:29;;;;;;;19.90;15.17;;;;;;;15.06;100.00;96614.56;4996649;28;20212;-83
2022/05/07 11:48:00;;;;;;;19.80;15.53;;;;;;;15.07;100.00;96627.91;5001818;28;20208;-84
2022/05/07 11:50:29;;;;;;;18.53;15.40;;;;;;;15.10;100.00;96600.22;5001864;28;20224;-84
2022/05/07 11:52:58;;;;;;;18.27;15.13;;;;;;;15.14;100.00;96606.78;5003127;28;20207;-86